createdAt,value
2022-08-05T00:01:36.358Z,72.89
2022-08-05T00:04:17.571Z,72.72
2022-08-05T00:06:47.068Z,72.70
2022-08-05T00:09:19.532Z,72.89
2022-08-05T00:11:56.089Z,73.07
2022-08-05T00:14:29.112Z,72.95
2022-08-05T00:16:58.079Z,73.41
2022-08-05T00:19:33.537Z,73.42
2022-08-05T00:22:02.383Z,73.66
2022-08-05T00:24:31.186Z,73.66
2022-08-05T00:27:01.665Z,74.08
2022-08-05T00:29:37.955Z,74.42
2022-08-05T00:32:12.398Z,74.40
2022-08-05T00:35:04.825Z,74.49
2022-08-05T00:37:50.330Z,74.79
2022-08-05T00:40:27.768Z,74.99
2022-08-05T00:43:02.616Z,74.67
2022-08-05T00:45:43.146Z,75.09
2022-08-05T00:48:13.841Z,75.13
2022-08-05T00:50:46.086Z,75.23
2022-08-05T00:53:45.092Z,75.05
2022-08-05T00:56:04.688Z,75.11
2022-08-05T00:58:34.293Z,75.12
2022-08-05T01:01:02.628Z,75.33
2022-08-05T01:03:37.072Z,74.89
2022-08-05T01:06:06.351Z,75.23
2022-08-05T01:08:44.104Z,74.86
2022-08-05T01:11:22.708Z,75.08
2022-08-05T01:14:28.351Z,75.22
2022-08-05T01:17:07.178Z,74.61
2022-08-05T01:20:02.025Z,74.86
2022-08-05T01:22:47.037Z,74.49
2022-08-05T01:25:53.828Z,74.65
2022-08-05T01:28:34.918Z,74.49
2022-08-05T01:31:18.294Z,74.83
2022-08-05T01:33:55.614Z,75.30
2022-08-05T01:36:32.092Z,75.97
2022-08-05T01:39:02.213Z,76.16
2022-08-05T01:41:37.494Z,76.38
2022-08-05T01:44:09.694Z,76.51
2022-08-05T01:46:42.868Z,76.83
2022-08-05T01:49:23.620Z,76.93
2022-08-05T01:52:01.060Z,77.17
2022-08-05T01:54:45.860Z,77.31
2022-08-05T01:58:12.357Z,77.76
2022-08-05T02:00:12.397Z,77.66
2022-08-05T02:02:53.703Z,77.66
2022-08-05T02:05:31.566Z,77.58
2022-08-05T02:08:03.074Z,77.59
2022-08-05T02:10:38.078Z,77.42
2022-08-05T02:13:16.079Z,77.59
2022-08-05T02:15:51.993Z,77.23
2022-08-05T02:18:34.357Z,77.05
2022-08-05T02:21:14.821Z,76.73
2022-08-05T02:23:50.399Z,76.63
2022-08-05T02:26:26.488Z,76.94
2022-08-05T02:28:58.535Z,76.68
2022-08-05T02:31:34.965Z,76.66
2022-08-05T02:34:09.202Z,76.53
2022-08-05T02:36:42.351Z,76.51
2022-08-05T02:39:11.044Z,76.27
2022-08-05T02:41:57.473Z,76.35
2022-08-05T02:44:31.652Z,76.24
2022-08-05T02:47:02.257Z,76.51
2022-08-05T02:49:37.898Z,76.62
2022-08-05T02:52:13.699Z,76.46
2022-08-05T02:55:02.038Z,76.31
2022-08-05T02:58:12.349Z,76.48
2022-08-05T03:00:22.841Z,76.45
2022-08-05T03:02:55.754Z,77.01
2022-08-05T03:06:53.645Z,76.53
2022-08-05T03:08:14.608Z,76.34
2022-08-05T03:11:55.598Z,76.39
2022-08-05T03:13:51.426Z,76.36
2022-08-05T03:16:22.377Z,76.33
2022-08-05T03:18:52.516Z,76.94
2022-08-05T03:21:20.765Z,76.68
2022-08-05T03:23:50.061Z,76.68
2022-08-05T03:26:31.813Z,76.74
2022-08-05T03:29:01.030Z,76.89
2022-08-05T03:31:56.744Z,76.46
2022-08-05T03:34:19.791Z,77.09
2022-08-05T03:36:52.698Z,76.56
2022-08-05T03:39:27.117Z,76.75
2022-08-05T03:41:56.528Z,76.74
2022-08-05T03:44:25.221Z,76.62
2022-08-05T03:46:57.507Z,76.60
2022-08-05T03:49:31.106Z,77.05
2022-08-05T03:52:49.297Z,77.17
2022-08-05T03:56:04.251Z,77.04
2022-08-05T03:58:12.492Z,77.45
2022-08-05T04:00:42.584Z,77.24
2022-08-05T04:03:28.182Z,77.25
2022-08-05T04:05:59.954Z,77.32
2022-08-05T04:08:36.121Z,77.43
2022-08-05T04:11:07.359Z,77.65
2022-08-05T04:13:51.235Z,77.23
2022-08-05T04:16:24.116Z,77.43
2022-08-05T04:18:54.304Z,77.52
2022-08-05T04:22:08.931Z,77.40
2022-08-05T04:24:19.345Z,77.49
2022-08-05T04:26:50.553Z,77.21
2022-08-05T04:29:19.976Z,76.91
2022-08-05T04:31:48.503Z,76.71
2022-08-05T04:34:33.410Z,76.78
2022-08-05T04:37:04.918Z,76.47
2022-08-05T04:39:35.417Z,76.53
2022-08-05T04:42:04.291Z,76.88
2022-08-05T04:44:32.462Z,76.63
2022-08-05T04:47:09.778Z,76.55
2022-08-05T04:50:03.031Z,76.77
2022-08-05T04:52:29.336Z,76.30
2022-08-05T04:55:15.091Z,76.68
2022-08-05T04:57:47.904Z,76.65
2022-08-05T05:00:23.907Z,76.83
2022-08-05T05:02:52.850Z,76.96
2022-08-05T05:05:28.204Z,76.69
2022-08-05T05:08:03.498Z,76.83
2022-08-05T05:10:34.780Z,76.84
2022-08-05T05:13:04.298Z,76.68
2022-08-05T05:15:57.577Z,76.89
2022-08-05T05:18:31.087Z,76.79
2022-08-05T05:21:03.068Z,76.76
2022-08-05T05:23:39.398Z,77.01
2022-08-05T05:26:28.824Z,76.79
2022-08-05T05:29:02.321Z,77.22
2022-08-05T05:34:02.809Z,76.76
2022-08-05T05:36:32.096Z,77.28
2022-08-05T05:39:03.545Z,77.07
2022-08-05T05:41:40.712Z,76.86
2022-08-05T05:44:35.838Z,77.15
2022-08-05T05:47:04.607Z,77.26
2022-08-05T05:49:47.564Z,77.29
2022-08-05T05:52:29.969Z,77.35
2022-08-05T05:55:07.335Z,77.71
2022-08-05T05:57:52.441Z,77.79
2022-08-05T06:00:31.534Z,77.60
2022-08-05T06:03:03.206Z,77.96
2022-08-05T06:05:53.902Z,77.89
2022-08-05T06:08:32.589Z,78.20
2022-08-05T06:11:02.957Z,78.13
2022-08-05T06:13:40.791Z,78.11
2022-08-05T06:16:30.281Z,78.19
2022-08-05T06:19:02.076Z,77.99
2022-08-05T06:21:36.719Z,77.85
2022-08-05T06:24:11.489Z,77.71
2022-08-05T06:26:52.178Z,77.43
2022-08-05T06:29:42.821Z,77.34
2022-08-05T06:32:25.674Z,76.91
2022-08-05T06:34:58.685Z,76.52
2022-08-05T06:37:57.700Z,76.04
2022-08-05T06:40:18.549Z,75.98
2022-08-05T06:42:52.299Z,75.38
2022-08-05T06:45:44.379Z,74.90
2022-08-05T06:48:36.459Z,74.22
2022-08-05T06:51:00.183Z,73.64
2022-08-05T06:53:29.364Z,73.03
2022-08-05T06:55:58.914Z,72.65
2022-08-05T06:58:36.179Z,72.25
2022-08-05T07:01:07.091Z,71.60
2022-08-05T07:03:36.034Z,71.26
2022-08-05T07:06:14.151Z,71.30
2022-08-05T07:08:47.511Z,70.50
2022-08-05T07:11:22.304Z,69.92
2022-08-05T07:14:15.342Z,69.32
2022-08-05T07:18:00.824Z,68.28
2022-08-05T07:22:32.063Z,67.74
2022-08-05T07:25:22.718Z,67.55
2022-08-05T07:27:57.639Z,66.54
2022-08-05T07:30:33.909Z,65.52
2022-08-05T07:33:05.455Z,65.64
2022-08-05T07:36:05.228Z,64.43
2022-08-05T07:38:33.932Z,63.19
2022-08-05T07:42:06.831Z,62.47
2022-08-05T07:43:55.158Z,62.05
2022-08-05T07:46:27.705Z,61.60
2022-08-05T07:49:02.100Z,61.42
2022-08-05T07:51:36.888Z,61.06
2022-08-05T07:54:10.557Z,60.39
2022-08-05T07:57:13.886Z,60.03
2022-08-05T07:59:39.038Z,60.15
2022-08-05T08:02:16.596Z,59.82
2022-08-05T08:04:48.573Z,59.61
2022-08-05T08:07:22.178Z,59.52
2022-08-05T08:09:54.876Z,59.53
2022-08-05T08:12:37.053Z,58.93
2022-08-05T08:15:15.735Z,58.85
2022-08-05T08:17:52.458Z,59.16
2022-08-05T08:20:59.771Z,59.38
2022-08-05T08:24:02.841Z,58.75
2022-08-05T08:26:02.699Z,57.63
2022-08-05T08:28:36.083Z,56.20
2022-08-05T08:31:15.044Z,55.10
2022-08-05T08:33:51.442Z,54.04
2022-08-05T08:36:38.127Z,53.75
2022-08-05T08:39:15.526Z,54.58
2022-08-05T08:41:52.579Z,54.34
2022-08-05T08:45:24.221Z,54.79
2022-08-05T08:48:05.703Z,53.74
2022-08-05T08:50:52.071Z,53.74
2022-08-05T08:53:12.165Z,53.67
2022-08-05T08:56:04.693Z,53.77
2022-08-05T08:58:43.875Z,53.71
2022-08-05T09:01:19.812Z,53.44
2022-08-05T09:03:52.931Z,52.26
2022-08-05T09:06:28.032Z,51.78
2022-08-05T09:08:59.957Z,52.08
2022-08-05T09:11:52.531Z,51.29
2022-08-05T09:14:57.503Z,49.99
2022-08-05T09:17:41.354Z,49.19
2022-08-05T09:20:02.902Z,49.34
2022-08-05T09:23:18.269Z,48.93
2022-08-05T09:26:01.996Z,49.00
2022-08-05T09:28:34.487Z,48.70
2022-08-05T09:31:22.570Z,49.51
2022-08-05T09:33:56.727Z,48.65
2022-08-05T09:36:27.466Z,47.98
2022-08-05T09:39:16.756Z,48.25
2022-08-05T09:41:58.346Z,48.04
2022-08-05T09:44:38.445Z,48.57
2022-08-05T09:47:15.598Z,48.12
2022-08-05T09:50:01.973Z,48.40
2022-08-05T09:52:33.945Z,49.34
2022-08-05T09:55:56.562Z,49.78
2022-08-05T09:57:59.743Z,50.38
2022-08-05T10:00:30.399Z,49.51
2022-08-05T10:02:59.389Z,49.55
2022-08-05T10:05:32.800Z,49.44
2022-08-05T10:08:34.718Z,48.83
2022-08-05T10:10:54.651Z,46.08
2022-08-05T10:13:45.841Z,44.87
2022-08-05T10:16:37.625Z,44.94
2022-08-05T10:19:11.849Z,44.69
2022-08-05T10:21:41.047Z,44.11
2022-08-05T10:24:13.229Z,44.33
2022-08-05T10:26:49.012Z,44.01
2022-08-05T10:29:24.078Z,44.84
2022-08-05T10:32:55.078Z,43.67
2022-08-05T10:35:00.966Z,43.39
2022-08-05T10:37:40.166Z,42.70
2022-08-05T10:40:27.954Z,42.10
2022-08-05T10:43:04.662Z,42.81
2022-08-05T10:45:41.780Z,43.16
2022-08-05T10:48:52.860Z,41.32
2022-08-05T10:51:28.827Z,41.47
2022-08-05T10:54:01.692Z,41.60
2022-08-05T10:56:32.036Z,41.34
2022-08-05T11:00:01.322Z,41.25
2022-08-05T11:02:14.156Z,41.13
2022-08-05T11:04:58.014Z,41.04
2022-08-05T11:07:32.974Z,40.96
2022-08-05T11:10:27.162Z,39.48
2022-08-05T11:12:56.450Z,36.29
2022-08-05T11:15:59.157Z,35.06
2022-08-05T11:18:29.837Z,34.92
2022-08-05T11:20:59.098Z,34.29
2022-08-05T11:24:05.500Z,34.80
2022-08-05T11:26:33.429Z,35.94
2022-08-05T11:29:06.957Z,35.47
2022-08-05T11:31:56.520Z,35.80
2022-08-05T11:34:51.144Z,35.91
2022-08-05T11:38:28.889Z,35.18
2022-08-05T11:41:35.556Z,35.26
2022-08-05T11:44:07.224Z,34.74
2022-08-05T11:47:09.656Z,34.61
2022-08-05T11:49:33.939Z,34.86
2022-08-05T11:52:08.690Z,34.75
2022-08-05T11:54:41.284Z,34.12
2022-08-05T11:57:25.391Z,34.42
2022-08-05T11:59:54.657Z,34.40
2022-08-05T12:02:33.125Z,33.70
2022-08-05T12:05:07.710Z,34.14
2022-08-05T12:08:08.553Z,33.74
2022-08-05T12:10:43.783Z,34.68
2022-08-05T12:13:27.935Z,35.05
2022-08-05T12:16:14.685Z,36.22
2022-08-05T12:18:49.608Z,35.43
2022-08-05T12:21:24.834Z,34.63
2022-08-05T12:24:04.369Z,34.18
2022-08-05T12:26:35.463Z,34.21
2022-08-05T12:29:07.761Z,34.49
2022-08-05T12:31:42.489Z,35.43
2022-08-05T12:34:21.209Z,35.19
2022-08-05T12:36:51.959Z,35.39
2022-08-05T12:39:20.504Z,35.84
2022-08-05T12:41:48.917Z,35.79
2022-08-05T12:44:28.602Z,35.38
2022-08-05T12:47:02.309Z,36.59
2022-08-05T12:50:03.016Z,37.60
2022-08-05T12:52:38.621Z,38.24
2022-08-05T12:55:22.702Z,37.03
2022-08-05T12:58:51.431Z,37.70
2022-08-05T13:02:03.019Z,37.84
2022-08-05T13:03:38.867Z,36.63
2022-08-05T13:06:16.444Z,34.47
2022-08-05T13:08:51.867Z,32.28
2022-08-05T13:11:25.604Z,29.88
2022-08-05T13:14:24.763Z,31.15
2022-08-05T13:17:09.929Z,31.24
2022-08-05T13:19:51.043Z,31.28
2022-08-05T13:22:28.363Z,32.56
2022-08-05T13:25:00.757Z,33.73
2022-08-05T13:27:38.245Z,34.81
2022-08-05T13:30:34.168Z,35.87
2022-08-05T13:33:01.416Z,36.34
2022-08-05T13:35:43.008Z,36.26
2022-08-05T13:38:30.782Z,36.99
2022-08-05T13:41:00.481Z,36.10
2022-08-05T13:43:45.825Z,36.22
2022-08-05T13:46:30.830Z,37.18
2022-08-05T13:49:10.544Z,37.23
2022-08-05T13:51:46.087Z,37.90
2022-08-05T13:54:21.185Z,36.75
2022-08-05T13:56:53.917Z,36.32
2022-08-05T13:59:25.322Z,35.95
2022-08-05T14:01:58.979Z,35.66
2022-08-05T14:04:50.139Z,35.15
2022-08-05T14:07:54.986Z,34.34
2022-08-05T14:10:12.921Z,34.68
2022-08-05T14:12:42.676Z,35.39
2022-08-05T14:16:08.395Z,35.47
2022-08-05T14:18:01.023Z,36.31
2022-08-05T14:20:30.676Z,35.84
2022-08-05T14:22:58.986Z,35.76
2022-08-05T14:25:30.038Z,36.09
2022-08-05T14:27:58.767Z,36.33
2022-08-05T14:30:28.401Z,36.59
2022-08-05T14:33:00.000Z,36.00
2022-08-05T14:35:36.257Z,34.02
2022-08-05T14:38:05.891Z,31.90
2022-08-05T14:40:55.707Z,32.11
2022-08-05T14:43:59.606Z,32.69
2022-08-05T14:46:13.035Z,34.30
2022-08-05T14:48:41.429Z,33.58
2022-08-05T14:51:09.962Z,32.13
2022-08-05T14:53:44.429Z,32.34
2022-08-05T14:56:14.963Z,31.64
2022-08-05T14:58:53.140Z,31.02
2022-08-05T15:01:48.091Z,31.38
2022-08-05T15:04:11.966Z,31.79
2022-08-05T15:06:40.601Z,31.71
2022-08-05T15:09:08.797Z,30.52
2022-08-05T15:11:51.389Z,30.28
2022-08-05T15:14:34.872Z,30.42
2022-08-05T15:17:10.027Z,29.86
2022-08-05T15:19:55.665Z,29.89
2022-08-05T15:22:26.685Z,29.02
2022-08-05T15:24:56.031Z,28.41
2022-08-05T15:27:26.053Z,28.65
2022-08-05T15:29:56.662Z,29.60
2022-08-05T15:32:27.205Z,30.84
2022-08-05T15:34:55.705Z,30.66
2022-08-05T15:38:08.601Z,30.68
2022-08-05T15:41:01.709Z,29.59
2022-08-05T15:43:20.443Z,30.77
2022-08-05T15:46:00.663Z,32.42
2022-08-05T15:48:30.609Z,31.89
2022-08-05T15:51:03.290Z,30.49
2022-08-05T15:53:38.375Z,28.84
2022-08-05T15:56:19.093Z,27.84
2022-08-05T15:58:48.721Z,28.96
2022-08-05T16:01:20.006Z,29.12
2022-08-05T16:03:50.601Z,30.81
2022-08-05T16:06:20.890Z,32.19
2022-08-05T16:08:55.314Z,33.42
2022-08-05T16:11:39.874Z,32.44
2022-08-05T16:14:10.075Z,29.69
2022-08-05T16:16:47.220Z,28.10
2022-08-05T16:19:25.627Z,27.92
2022-08-05T16:22:04.899Z,25.68
2022-08-05T16:24:41.265Z,25.07
2022-08-05T16:27:19.416Z,24.96
2022-08-05T16:30:03.902Z,24.54
2022-08-05T16:32:32.438Z,23.70
2022-08-05T16:35:02.320Z,23.05
2022-08-05T16:38:16.828Z,22.97
2022-08-05T16:40:28.525Z,22.17
2022-08-05T16:42:57.499Z,22.30
2022-08-05T16:46:07.178Z,24.88
2022-08-05T16:48:25.397Z,25.47
2022-08-05T16:50:54.781Z,24.51
2022-08-05T16:53:32.269Z,23.39
2022-08-05T16:56:00.922Z,23.52
2022-08-05T16:58:32.248Z,23.58
2022-08-05T17:01:02.466Z,23.26
2022-08-05T17:03:34.870Z,23.52
2022-08-05T17:06:03.426Z,25.31
2022-08-05T17:08:36.441Z,26.71
2022-08-05T17:11:23.774Z,28.19
2022-08-05T17:14:00.200Z,26.65
2022-08-05T17:16:36.462Z,26.06
2022-08-05T17:19:07.642Z,27.17
2022-08-05T17:21:39.687Z,28.21
2022-08-05T17:24:28.055Z,28.53
2022-08-05T17:27:00.112Z,28.14
2022-08-05T17:29:33.973Z,28.77
2022-08-05T17:32:16.566Z,30.88
2022-08-05T17:34:47.666Z,30.13
2022-08-05T17:37:40.803Z,27.62
2022-08-05T17:40:10.922Z,26.50
2022-08-05T17:42:51.937Z,26.02
2022-08-05T17:45:23.043Z,25.69
2022-08-05T17:47:56.111Z,25.54
2022-08-05T17:50:28.475Z,25.63
2022-08-05T17:53:04.742Z,25.41
2022-08-05T17:55:40.059Z,26.04
2022-08-05T17:58:11.116Z,25.88
2022-08-05T18:00:44.981Z,27.48
2022-08-05T18:03:56.539Z,29.58
2022-08-05T18:06:12.196Z,30.09
2022-08-05T18:08:52.571Z,28.96
2022-08-05T18:11:24.579Z,29.24
2022-08-05T18:14:03.282Z,27.88
2022-08-05T18:16:33.173Z,28.03
2022-08-05T18:19:07.353Z,28.25
2022-08-05T18:22:08.709Z,28.13
2022-08-05T18:24:33.210Z,29.04
2022-08-05T18:27:01.474Z,30.06
2022-08-05T18:29:40.493Z,30.25
2022-08-05T18:32:13.217Z,29.86
2022-08-05T18:34:45.830Z,29.84
2022-08-05T18:37:33.220Z,30.05
2022-08-05T18:41:49.974Z,30.77
2022-08-05T18:42:50.701Z,31.95
2022-08-05T18:45:20.470Z,33.60
2022-08-05T18:47:56.287Z,34.61
2022-08-05T18:50:47.048Z,36.61
2022-08-05T18:53:22.212Z,37.43
2022-08-05T18:55:53.198Z,38.22
2022-08-05T18:58:28.932Z,38.98
2022-08-05T19:00:57.863Z,39.95
2022-08-05T19:03:53.401Z,40.49
2022-08-05T19:06:21.915Z,40.79
2022-08-05T19:09:06.872Z,41.74
2022-08-05T19:12:00.971Z,42.43
2022-08-05T19:14:37.554Z,42.74
2022-08-05T19:17:13.939Z,43.35
2022-08-05T19:19:47.069Z,43.83
2022-08-05T19:22:18.815Z,44.26
2022-08-05T19:24:54.378Z,44.86
2022-08-05T19:27:27.758Z,45.29
2022-08-05T19:30:02.969Z,45.45
2022-08-05T19:32:32.161Z,46.29
2022-08-05T19:35:05.847Z,46.44
2022-08-05T19:38:04.284Z,46.99
2022-08-05T19:40:27.329Z,47.36
2022-08-05T19:43:05.004Z,47.79
2022-08-05T19:45:36.447Z,48.25
2022-08-05T19:48:14.563Z,48.81
2022-08-05T19:50:50.953Z,49.03
2022-08-05T19:54:03.419Z,49.36
2022-08-05T19:56:13.619Z,49.86
2022-08-05T19:58:54.060Z,50.33
2022-08-05T20:01:28.288Z,51.05
2022-08-05T20:04:01.735Z,51.67
2022-08-05T20:06:32.125Z,52.06
2022-08-05T20:09:06.150Z,52.66
2022-08-05T20:11:48.307Z,52.77
2022-08-05T20:14:26.700Z,53.14
2022-08-05T20:16:59.181Z,53.72
2022-08-05T20:19:36.363Z,54.49
2022-08-05T20:22:12.295Z,54.84
2022-08-05T20:24:41.818Z,55.46
2022-08-05T20:27:13.105Z,55.57
2022-08-05T20:29:57.719Z,56.07
2022-08-05T20:32:27.743Z,56.53
2022-08-05T20:34:56.125Z,56.81
2022-08-05T20:38:06.053Z,57.50
2022-08-05T20:40:18.578Z,58.07
2022-08-05T20:42:46.760Z,58.21
2022-08-05T20:45:15.006Z,58.57
2022-08-05T20:47:43.763Z,59.03
2022-08-05T20:50:15.138Z,59.20
2022-08-05T20:52:43.999Z,59.45
2022-08-05T20:55:55.596Z,59.73
2022-08-05T20:58:07.035Z,60.31
2022-08-05T21:00:49.807Z,60.82
2022-08-05T21:03:22.429Z,60.86
2022-08-05T21:05:54.534Z,61.25
2022-08-05T21:08:32.882Z,61.22
2022-08-05T21:11:10.035Z,61.68
2022-08-05T21:13:56.516Z,61.79
2022-08-05T21:16:29.074Z,62.21
2022-08-05T21:19:00.435Z,62.50
2022-08-05T21:21:39.430Z,62.98
2022-08-05T21:24:15.300Z,63.07
2022-08-05T21:26:53.426Z,63.48
2022-08-05T21:29:31.785Z,63.77
2022-08-05T21:32:01.711Z,63.46
2022-08-05T21:34:31.699Z,63.76
2022-08-05T21:37:01.740Z,63.81
2022-08-05T21:39:30.873Z,64.63
2022-08-05T21:42:04.425Z,64.83
2022-08-05T21:44:33.260Z,64.62
2022-08-05T21:47:01.612Z,64.75
2022-08-05T21:49:48.645Z,64.55
2022-08-05T21:52:27.382Z,64.52
2022-08-05T21:54:57.122Z,64.98
2022-08-05T21:57:32.641Z,64.63
2022-08-05T22:00:04.931Z,65.21
2022-08-05T22:02:34.922Z,65.30
2022-08-05T22:05:04.594Z,65.27
2022-08-05T22:07:40.362Z,65.19
2022-08-05T22:10:26.651Z,65.41
2022-08-05T22:12:59.142Z,65.57
2022-08-05T22:16:01.211Z,65.92
2022-08-05T22:18:26.164Z,65.76
2022-08-05T22:20:55.781Z,65.77
2022-08-05T22:24:02.565Z,66.41
2022-08-05T22:26:50.524Z,66.35
2022-08-05T22:29:26.627Z,66.62
2022-08-05T22:31:59.558Z,66.73
2022-08-05T22:34:31.675Z,67.56
2022-08-05T22:37:00.379Z,67.85
2022-08-05T22:39:32.742Z,67.43
2022-08-05T22:42:11.043Z,67.43
2022-08-05T22:44:48.193Z,68.14
2022-08-05T22:47:29.751Z,68.47
2022-08-05T22:50:20.484Z,68.74
2022-08-05T22:52:48.882Z,68.15
2022-08-05T22:55:18.970Z,68.60
2022-08-05T22:57:49.345Z,68.88
2022-08-05T23:00:20.965Z,69.23
2022-08-05T23:02:50.615Z,69.60
2022-08-05T23:05:21.991Z,69.56
2022-08-05T23:07:51.543Z,69.84
2022-08-05T23:10:24.044Z,70.13
2022-08-05T23:12:55.802Z,70.17
2022-08-05T23:15:29.834Z,70.88
2022-08-05T23:18:06.111Z,70.97
2022-08-05T23:20:40.044Z,71.36
2022-08-05T23:23:11.306Z,70.81
2022-08-05T23:25:52.961Z,71.07
2022-08-05T23:28:23.934Z,71.35
2022-08-05T23:30:56.395Z,71.56
2022-08-05T23:34:05.283Z,71.72
2022-08-05T23:36:39.848Z,72.28
2022-08-05T23:39:17.233Z,72.55
2022-08-05T23:41:52.150Z,72.05
2022-08-05T23:44:22.554Z,72.49
2022-08-05T23:46:54.620Z,73.11
2022-08-05T23:49:35.754Z,73.13
2022-08-05T23:52:25.236Z,73.01
2022-08-05T23:54:54.371Z,73.19
2022-08-05T23:57:22.765Z,73.52
